Latest Weather Observations for Scone Airport

IDN60801

Issued at 5:02 am EST Sunday 19 April 2015 (issued every 30 minutes, with the page automatically refreshed every 10 minutes)

About weather observations | Map of weather stations | Latest weather observations for NSW | Other Formats
Station Details ID: 061363 Name: SCONE AIRPORT AWS Lat: -32.03 Lon: 150.83 Height: 221.4 m
Data from the previous 72 hours. | See also: Recent months at Scone Airport
Date/Time
EST
Temp
°C
App
Temp
°C
Dew
Point
Rel
Hum
%
Delta-T
°C
Wind Press
QNH
hPa
Press
MSL
hPa
Rain
since 9 am
mm
Dir
 
Spd
km/h
Gust
km/h
Spd
kts
Gust
kts
19/05:00am 16.6 18.2 16.0 96 0.4 NE 2 6 1 3 1016.4 1016.0 5.8
19/04:30am 16.6 17.4 15.8 95 0.5 NNW 6 9 3 5 1016.1 1015.7 5.8
19/04:00am 16.6 17.3 16.0 96 0.4 WNW 7 11 4 6 1015.9 1015.5 5.8
19/03:30am 16.7 16.3 16.1 96 0.4 NE 13 19 7 10 1015.6 1015.1 5.8
19/03:00am 16.7 17.0 16.1 96 0.4 NNE 9 13 5 7 1016.2 1015.8 5.6
19/02:30am 16.8 18.1 16.2 96 0.4 NNE 4 9 2 5 1016.1 1015.7 5.2
19/02:00am 16.8 17.1 16.0 95 0.5 NE 9 13 5 7 1016.7 1016.2 4.6
19/01:30am 17.1 17.2 15.4 90 1.0 NNW 9 13 5 7 1017.4 1016.9 4.2
19/01:00am 17.2 17.3 15.5 90 1.0 N 9 15 5 8 1017.4 1016.9 2.6
19/12:30am 17.5 16.8 15.3 87 1.3 WNW 13 19 7 10 1017.4 1016.9 1.4
19/12:00am 18.0 16.8 15.1 83 1.7 NW 15 20 8 11 1017.4 1016.9 0.2
 
Date/Time
EST
Temp
°C
App
Temp
°C
Dew
Point
Rel
Hum
%
Delta-T
°C
Wind Press
QNH
hPa
Press
MSL
hPa
Rain
since 9 am
mm
Dir
 
Spd
km/h
Gust
km/h
Spd
kts
Gust
kts
18/11:30pm 19.3 18.3 14.6 74 2.8 NW 13 19 7 10 1017.3 1016.8 0.0
18/11:04pm 19.3 14.7 14.6 74 2.8 WSW 32 50 17 27 1016.9 1016.4 0.0
18/11:00pm 19.2 14.4 14.7 75 2.6 WSW 33 50 18 27 1016.7 1016.2 0.0
18/10:57pm 19.1 14.6 14.8 76 2.5 WSW 32 50 17 27 1016.9 1016.4 0.0
18/10:30pm 19.6 14.9 14.8 74 2.8 WSW 33 48 18 26 1016.9 1016.4 0.0
18/10:21pm 19.8 15.7 14.8 73 3.0 WSW 30 48 16 26 1016.9 1016.4 0.0
18/10:00pm 21.0 16.1 14.2 65 4.0 WSW 33 48 18 26 1017.0 1016.5 0.0
18/09:53pm 22.0 19.4 13.9 60 4.8 W 20 44 11 24 1016.9 1016.4 0.0
18/09:30pm 23.2 22.8 14.2 57 5.3 NW 9 24 5 13 1016.2 1015.8 0.0
18/09:00pm 22.3 22.0 13.4 57 5.2 SSW 7 11 4 6 1016.1 1015.7 0.0
18/08:30pm 22.5 23.4 13.0 55 5.5 CALM 0 0 0 0 1015.8 1015.4 0.0
18/08:00pm 22.9 23.0 12.8 53 5.8 N 4 7 2 4 1015.5 1015.0 0.0
18/07:30pm 23.1 22.8 12.7 52 6.0 NNW 6 9 3 5 1015.4 1014.9 0.0
18/07:00pm 23.2 22.6 12.2 50 6.3 NNW 7 13 4 7 1015.2 1014.7 0.0
18/06:30pm 24.1 22.0 12.4 48 6.8 N 15 24 8 13 1015.1 1014.6 0.0
18/06:00pm 24.1 21.7 12.7 49 6.6 NNW 17 26 9 14 1015.0 1014.5 0.0
18/05:30pm 24.5 22.7 12.1 46 7.1 NNW 13 22 7 12 1015.1 1014.6 0.0
18/05:00pm 25.1 23.0 12.3 45 7.4 NNW 15 24 8 13 1014.8 1014.3 0.0
18/04:30pm 25.7 23.0 11.8 42 8.0 NNW 17 26 9 14 1015.0 1014.5 0.0
18/04:00pm 26.5 23.8 12.9 43 8.0 NNW 19 28 10 15 1015.2 1014.7 0.0
18/03:30pm 25.8 23.0 12.6 44 7.7 NNW 19 28 10 15 1015.4 1014.9 0.0
18/03:00pm 25.8 23.1 13.0 45 7.5 NNW 19 28 10 15 1015.6 1015.1 0.0
18/02:30pm 25.6 22.9 12.8 45 7.5 NNW 19 30 10 16 1015.6 1015.1 0.0
18/02:00pm 25.6 23.3 13.1 46 7.3 NNW 17 22 9 12 1016.1 1015.7 0.0
18/01:30pm 26.0 23.3 13.5 46 7.4 NNW 20 28 11 15 1016.7 1016.2 0.0
18/01:00pm 25.5 22.3 13.0 46 7.3 NW 22 35 12 19 1017.0 1016.5 0.0
18/12:30pm 25.6 22.7 14.1 49 6.9 NNW 22 33 12 18 1017.4 1016.9 0.0
18/12:00pm 25.0 22.8 13.2 48 6.9 WNW 17 24 9 13 1017.9 1017.4 0.0
18/11:30am 25.1 23.0 13.6 49 6.8 NNW 17 24 9 13 1018.5 1018.0 0.0
18/11:00am 25.1 23.4 13.6 49 6.8 NW 15 28 8 15 1018.8 1018.3 0.0
18/10:30am 25.4 23.3 13.6 48 7.0 NW 17 22 9 12 1019.2 1018.7 0.0
18/10:00am 24.2 20.8 12.5 48 6.8 NW 22 32 12 17 1019.6 1019.2 0.0
18/09:30am 23.9 20.9 12.5 49 6.6 NW 20 28 11 15 1020.0 1019.6 0.0
18/09:00am 23.9 21.1 12.5 49 6.6 NW 19 30 10 16 1020.3 1019.9 0.0
18/08:30am 22.5 23.6 13.6 57 5.2 CALM 0 0 0 0 1020.5 1020.1 0.0
18/08:00am 19.5 21.2 16.2 81 2.0 WNW 2 9 1 5 1020.5 1020.1 0.0
18/07:30am 17.0 17.9 16.5 97 0.3 NW 7 11 4 6 1020.2 1019.8 0.0
18/07:00am 14.9 16.4 14.7 99 0.1 CALM 0 7 0 4 1019.9 1019.5 0.0
18/06:30am 13.8 14.2 13.6 99 0.1 WNW 4 7 2 4 1019.7 1019.3 0.0
18/06:00am 14.6 16.0 14.4 99 0.1 CALM 0 0 0 0 1019.4 1019.0 0.0
18/05:30am 15.1 15.6 14.9 99 0.1 NW 6 7 3 4 1019.4 1018.9 0.0
18/05:00am 16.0 16.2 15.8 99 0.1 NNE 9 13 5 7 1019.1 1018.6 0.0
18/04:30am 16.9 17.8 16.7 99 0.1 NNE 7 9 4 5 1019.2 1018.7 0.0
18/04:00am 17.6 19.4 17.4 99 0.1 NE 4 7 2 4 1019.1 1018.6 0.0
18/03:30am 17.9 19.1 17.4 97 0.3 NE 7 9 4 5 1019.0 1018.5 0.0
18/03:00am 18.4 21.0 17.6 95 0.5 CALM 0 0 0 0 1019.0 1018.5 0.0
18/02:30am 18.8 21.4 17.6 93 0.7 CALM 0 0 0 0 1019.1 1018.6 0.0
18/02:00am 19.0 21.7 17.7 92 0.8 CALM 0 0 0 0 1019.1 1018.6 0.0
18/01:30am 19.3 22.2 18.1 93 0.7 CALM 0 0 0 0 1019.3 1018.8 0.0
18/01:00am 19.5 22.5 18.5 94 0.6 CALM 0 0 0 0 1019.6 1019.2 0.0
18/12:30am 19.3 22.2 18.1 93 0.7 CALM 0 0 0 0 1020.0 1019.6 0.0
18/12:00am 19.1 21.9 17.9 93 0.7 CALM 0 0 0 0 1020.1 1019.7 0.0
 
Date/Time
EST
Temp
°C
App
Temp
°C
Dew
Point
Rel
Hum
%
Delta-T
°C
Wind Press
QNH
hPa
Press
MSL
hPa
Rain
since 9 am
mm
Dir
 
Spd
km/h
Gust
km/h
Spd
kts
Gust
kts
17/11:30pm 19.0 21.8 18.0 94 0.6 CALM 0 0 0 0 1020.7 1020.3 0.0
17/11:00pm 19.1 21.9 17.9 93 0.7 CALM 0 0 0 0 1020.7 1020.3 0.0
17/10:30pm 19.5 22.4 18.3 93 0.8 CALM 0 0 0 0 1020.8 1020.4 0.0
17/10:00pm 19.5 22.4 18.2 92 0.8 CALM 0 0 0 0 1020.8 1020.4 0.0
17/09:30pm 19.5 21.2 18.0 91 0.9 SE 6 7 3 4 1020.6 1020.2 0.0
17/09:00pm 19.9 21.3 17.9 88 1.2 SSE 7 11 4 6 1020.6 1020.2 0.0
17/08:30pm 20.5 21.6 17.9 85 1.6 S 9 15 5 8 1020.5 1020.1 0.0
17/08:00pm 20.9 21.1 17.7 82 2.0 S 13 19 7 10 1020.4 1020.0 0.0
17/07:30pm 21.2 20.9 17.4 79 2.4 S 15 19 8 10 1020.4 1020.0 0.0
17/07:00pm 21.5 21.5 17.3 77 2.6 S 13 15 7 8 1020.1 1019.7 0.0
17/06:30pm 21.8 22.1 17.0 74 3.0 S 11 13 6 7 1020.1 1019.7 0.0
17/06:00pm 22.2 22.2 17.1 73 3.2 S 13 15 7 8 1019.9 1019.5 0.0
17/05:30pm 22.7 22.6 16.9 70 3.6 SSE 13 17 7 9 1019.3 1018.8 0.0
17/05:00pm 23.7 23.2 17.0 66 4.2 S 15 19 8 10 1019.0 1018.5 0.0
17/04:30pm 24.6 23.1 16.8 62 4.9 S 20 26 11 14 1019.0 1018.5 0.0
17/04:00pm 25.6 24.5 17.3 60 5.2 S 19 24 10 13 1019.1 1018.6 0.0
17/03:30pm 25.6 24.3 16.7 58 5.5 SSE 19 24 10 13 1019.3 1018.8 0.0
17/03:00pm 26.5 25.3 17.0 56 6.0 S 19 24 10 13 1019.4 1018.9 0.0
17/02:30pm 26.1 25.8 16.4 55 6.0 SSE 13 19 7 10 1019.6 1019.2 0.0
17/02:00pm 26.2 25.7 17.0 57 5.8 S 15 20 8 11 1019.9 1019.5 0.0
17/01:30pm 25.7 25.2 16.0 55 6.0 SSE 13 19 7 10 1020.3 1019.9 0.0
17/01:00pm 25.8 25.7 16.9 58 5.6 SSE 13 19 7 10 1020.8 1020.4 0.0
17/12:30pm 25.6 25.3 16.4 56 5.7 SSE 13 19 7 10 1021.7 1021.2 0.0
17/12:00pm 24.9 24.4 16.9 61 5.0 S 15 17 8 9 1022.4 1021.9 0.0
17/11:30am 23.8 23.9 16.6 64 4.5 S 11 19 6 10 1023.0 1022.5 0.0
17/11:00am 23.5 24.8 17.0 67 4.0 S 6 15 3 8 1023.5 1023.1 0.0
17/10:30am 23.2 24.9 17.2 69 3.7 SSE 4 9 2 5 1023.7 1023.3 0.0
17/10:00am 22.7 23.9 17.4 72 3.3 S 7 11 4 6 1024.1 1023.7 0.0
17/09:30am 21.2 22.7 16.6 75 2.8 SW 4 9 2 5 1024.5 1024.1 0.0
17/09:00am 20.6 22.7 17.2 81 2.1 WSW 2 7 1 4 1024.7 1024.3 0.2
17/08:30am 20.0 22.6 17.6 86 1.5 CALM 0 0 0 0 1024.7 1024.3 0.2
17/08:00am 19.1 21.6 17.2 89 1.2 CALM 0 0 0 0 1024.5 1024.1 0.2
17/07:30am 18.1 19.3 16.8 92 0.8 NNE 6 9 3 5 1024.3 1023.9 0.2
17/07:00am 17.8 20.3 17.2 96 0.4 CALM 0 0 0 0 1024.2 1023.8 0.2
17/06:30am 16.7 18.7 15.9 95 0.5 CALM 0 0 0 0 1024.0 1023.6 0.2
17/06:00am 15.5 15.8 14.4 93 0.6 ENE 6 11 3 6 1023.5 1023.1 0.2
17/05:30am 16.1 17.5 15.3 95 0.5 ENE 2 6 1 3 1023.2 1022.7 0.2
17/05:00am 16.2 16.5 15.1 93 0.6 NNE 7 9 4 5 1022.9 1022.4 0.2
17/04:30am 16.9 17.5 15.2 90 1.0 SSE 6 9 3 5 1022.6 1022.1 0.2
17/04:00am 17.9 17.4 16.8 93 0.7 S 15 17 8 9 1022.5 1022.0 0.2
17/03:30am 17.8 17.1 16.5 92 0.8 S 15 17 8 9 1022.2 1021.7 0.2
17/03:00am 17.6 18.0 16.3 92 0.8 SSE 9 19 5 10 1022.1 1021.6 0.2
17/02:30am 18.0 16.9 15.4 85 1.5 S 15 19 8 10 1022.2 1021.7 0.2
17/02:00am 17.0 15.8 12.9 77 2.3 SSE 11 17 6 9 1022.3 1021.8 0.2
17/01:30am 18.4 17.1 13.7 74 2.7 S 13 19 7 10 1022.2 1021.7 0.2
17/01:00am 17.6 16.2 13.3 76 2.4 S 13 19 7 10 1022.1 1021.6 0.2
17/12:30am 16.8 17.8 13.1 79 2.1 CALM 0 0 0 0 1022.0 1021.5 0.2
17/12:00am 17.7 18.7 13.2 75 2.5 CALM 0 0 0 0 1021.9 1021.4 0.2
 
Date/Time
EST
Temp
°C
App
Temp
°C
Dew
Point
Rel
Hum
%
Delta-T
°C
Wind Press
QNH
hPa
Press
MSL
hPa
Rain
since 9 am
mm
Dir
 
Spd
km/h
Gust
km/h
Spd
kts
Gust
kts
16/11:30pm 16.5 17.4 12.8 79 2.1 CALM 0 0 0 0 1022.0 1021.5 0.2
16/11:00pm 16.8 16.8 12.5 76 2.4 NNW 4 9 2 5 1022.1 1021.6 0.2
16/10:30pm 17.7 18.6 13.0 74 2.7 CALM 0 0 0 0 1022.2 1021.7 0.2
16/10:00pm 18.0 19.1 13.5 75 2.6 CALM 0 6 0 3 1022.4 1021.9 0.2
16/09:30pm 18.5 18.9 13.6 73 2.8 N 4 9 2 5 1022.4 1021.9 0.2
16/09:00pm 19.2 19.2 13.6 70 3.2 WNW 6 7 3 4 1022.3 1021.8 0.2
16/08:30pm 19.7 19.7 13.6 68 3.5 NNW 6 9 3 5 1022.0 1021.5 0.2
16/08:00pm 20.0 19.9 13.9 68 3.5 N 7 9 4 5 1021.7 1021.2 0.2
16/07:30pm 21.6 21.7 14.0 62 4.5 NW 6 9 3 5 1021.4 1020.9 0.2
16/07:00pm 22.4 23.6 13.7 58 5.1 CALM 0 0 0 0 1021.0 1020.6 0.2
16/06:30pm 22.8 23.7 13.0 54 5.7 CALM 0 0 0 0 1020.7 1020.3 0.2
16/06:00pm 24.8 25.4 13.0 47 6.9 WNW 2 7 1 4 1020.4 1020.0 0.2
16/05:30pm 27.8 27.2 12.2 38 9.1 NNW 7 11 4 6 1020.1 1019.7 0.2
16/05:00pm 29.1 28.2 12.5 36 9.8 NNW 9 13 5 7 1019.9 1019.5 0.2
16/04:30pm 29.9 28.7 12.8 35 10.2 NW 11 15 6 8 1019.9 1019.5 0.2
16/04:00pm 30.4 28.5 11.9 32 10.9 NNW 13 17 7 9 1020.0 1019.6 0.2
16/03:30pm 30.5 28.8 12.4 33 10.8 NNW 13 22 7 12 1020.4 1020.0 0.2
16/03:00pm 30.9 29.5 12.3 32 11.0 WNW 11 17 6 9 1020.5 1020.1 0.2
16/02:30pm 30.8 29.1 13.6 35 10.4 NW 15 26 8 14 1020.8 1020.4 0.2
16/02:00pm 31.1 29.1 13.8 34 10.5 WNW 17 28 9 15 1021.1 1020.7 0.2
16/01:30pm 30.4 28.4 12.8 34 10.5 WNW 15 26 8 14 1021.2 1020.8 0.2
16/01:00pm 30.0 27.9 12.4 34 10.4 NNW 15 22 8 12 1021.6 1021.1 0.2
16/12:30pm 29.5 26.5 12.0 34 10.3 NW 19 28 10 15 1022.2 1021.7 0.2
16/12:00pm 29.6 27.0 12.1 34 10.3 NW 17 24 9 13 1022.6 1022.1 0.2
16/11:30am 29.8 27.4 12.7 35 10.2 NW 17 24 9 13 1023.1 1022.6 0.2
16/11:00am 28.7 26.8 13.0 38 9.3 NW 15 20 8 11 1023.5 1023.1 0.2
16/10:30am 27.9 28.9 14.2 43 8.3 NNE 2 9 1 5 1024.0 1023.6 0.2
16/10:00am 26.0 26.2 14.1 47 7.1 NE 6 9 3 5 1024.4 1024.0 0.0
16/09:30am 23.8 25.6 15.6 60 5.0 CALM 0 6 0 3 1024.6 1024.2 0.0
16/09:00am 21.6 22.7 14.7 65 4.1 W 2 6 1 3 1024.8 1024.4 0.0
16/08:30am 19.6 20.9 14.2 71 3.2 CALM 0 4 0 2 1024.8 1024.4 0.0
16/08:00am 17.6 18.1 14.1 80 2.0 NNW 4 9 2 5 1024.6 1024.2 0.0
16/07:30am 15.0 14.9 13.4 90 0.9 W 6 9 3 5 1024.3 1023.9 0.0
16/07:00am 13.5 13.3 12.9 96 0.3 WNW 6 7 3 4 1023.9 1023.5 0.0
16/06:30am 12.7 12.1 11.8 94 0.5 E 6 7 3 4 1023.9 1023.5 0.0
16/06:00am 12.8 12.1 11.9 94 0.5 W 7 9 4 5 1023.8 1023.4 0.0
16/05:30am 14.0 13.1 12.6 91 0.8 SW 9 13 5 7 1023.6 1023.2 0.0

Other Formats:

Comma delimited format used in spreadsheet applications
http://www.bom.gov.au/fwo/IDN60801/IDN60801.95758.axf

JavaScript Object Notation format (JSON) in row-major order
http://www.bom.gov.au/fwo/IDN60801/IDN60801.95758.json